createdAt,value
2019-05-20T00:02:28.474Z,11.60
2019-05-20T00:04:57.927Z,11.70
2019-05-20T00:07:26.854Z,11.70
2019-05-20T00:09:55.995Z,11.70
2019-05-20T00:12:25.304Z,11.30
2019-05-20T00:14:54.344Z,11.40
2019-05-20T00:17:23.515Z,11.50
2019-05-20T00:19:52.699Z,11.50
2019-05-20T00:22:21.836Z,11.50
2019-05-20T00:24:50.951Z,11.50
2019-05-20T00:27:20.149Z,11.50
2019-05-20T00:29:49.323Z,11.40
2019-05-20T00:32:18.340Z,11.30
2019-05-20T00:34:47.382Z,11.40
2019-05-20T00:37:16.465Z,11.40
2019-05-20T00:39:45.563Z,11.40
2019-05-20T00:42:14.660Z,11.50
2019-05-20T00:44:43.753Z,11.30
2019-05-20T00:47:12.955Z,11.30
2019-05-20T00:49:41.962Z,11.20
2019-05-20T00:52:11.074Z,11.20
2019-05-20T00:54:40.194Z,11.20
2019-05-20T00:57:09.331Z,11.20
2019-05-20T00:59:38.416Z,11.20
2019-05-20T01:02:07.528Z,11.20
2019-05-20T01:04:36.635Z,11.10
2019-05-20T01:07:05.715Z,11.00
2019-05-20T01:09:34.866Z,10.80
2019-05-20T01:12:03.996Z,10.60
2019-05-20T01:14:33.130Z,10.60
2019-05-20T01:17:02.115Z,10.60
2019-05-20T01:19:31.280Z,10.70
2019-05-20T01:22:00.484Z,10.60
2019-05-20T01:24:29.606Z,10.60
2019-05-20T01:26:58.848Z,10.50
2019-05-20T01:29:27.971Z,10.50
2019-05-20T01:31:57.146Z,10.40
2019-05-20T01:34:26.137Z,10.40
2019-05-20T01:36:55.354Z,10.40
2019-05-20T01:39:24.652Z,10.30
2019-05-20T01:41:53.663Z,10.20
2019-05-20T01:44:22.896Z,10.30
2019-05-20T01:46:51.957Z,10.30
2019-05-20T01:49:21.053Z,10.30
2019-05-20T01:51:50.128Z,10.30
2019-05-20T01:54:19.233Z,10.40
2019-05-20T01:56:48.420Z,10.30
2019-05-20T01:59:17.535Z,10.40
2019-05-20T02:01:46.741Z,10.50
2019-05-20T02:04:15.793Z,10.40
2019-05-20T02:06:44.832Z,10.50
2019-05-20T02:09:14.036Z,10.30
2019-05-20T02:11:43.098Z,10.40
2019-05-20T02:14:17.146Z,10.20
2019-05-20T02:16:46.431Z,10.20
2019-05-20T02:19:15.439Z,10.20
2019-05-20T02:21:44.651Z,10.20
2019-05-20T02:24:13.774Z,10.20
2019-05-20T02:26:42.921Z,10.20
2019-05-20T02:29:12.250Z,10.30
2019-05-20T02:31:41.373Z,10.40
2019-05-20T02:34:10.565Z,10.50
2019-05-20T02:36:39.663Z,10.60
2019-05-20T02:39:08.902Z,10.70
2019-05-20T02:41:38.010Z,10.80
2019-05-20T02:44:07.423Z,10.70
2019-05-20T02:46:36.575Z,10.70
2019-05-20T02:49:05.703Z,10.70
2019-05-20T02:51:34.993Z,10.70
2019-05-20T02:54:04.164Z,10.90
2019-05-20T02:56:33.267Z,10.90
2019-05-20T02:59:02.408Z,10.90
2019-05-20T03:01:31.539Z,11.00
2019-05-20T03:04:11.460Z,11.10
2019-05-20T03:06:31.347Z,11.20
2019-05-20T03:09:00.452Z,11.10
2019-05-20T03:11:29.608Z,11.10
2019-05-20T03:13:58.803Z,11.20
2019-05-20T03:16:27.851Z,11.20
2019-05-20T03:18:56.856Z,11.30
2019-05-20T03:21:26.004Z,11.30
2019-05-20T03:23:55.031Z,11.30
2019-05-20T03:26:24.126Z,11.40
2019-05-20T03:28:53.274Z,11.40
2019-05-20T03:31:22.370Z,11.40
2019-05-20T03:33:51.490Z,11.40
2019-05-20T03:36:20.603Z,11.40
2019-05-20T03:38:49.699Z,11.50
2019-05-20T03:41:18.839Z,11.40
2019-05-20T03:43:48.075Z,11.40
2019-05-20T03:46:17.168Z,11.40
2019-05-20T03:48:46.212Z,11.40
2019-05-20T03:51:15.393Z,11.40
2019-05-20T03:53:44.494Z,11.40
2019-05-20T03:56:13.422Z,11.40
2019-05-20T03:58:42.595Z,11.40
2019-05-20T04:01:11.758Z,11.50
2019-05-20T04:03:40.802Z,11.40
2019-05-20T04:06:10.052Z,11.60
2019-05-20T04:08:39.282Z,11.60
2019-05-20T04:11:08.421Z,11.50
2019-05-20T04:13:39.316Z,11.60
2019-05-20T04:16:08.333Z,11.50
2019-05-20T04:18:37.486Z,11.60
2019-05-20T04:21:06.707Z,11.70
2019-05-20T04:23:35.933Z,11.50
2019-05-20T04:26:05.105Z,11.60
2019-05-20T04:28:34.260Z,11.60
2019-05-20T04:31:03.333Z,11.60
2019-05-20T04:33:32.393Z,11.50
2019-05-20T04:36:01.605Z,11.50
2019-05-20T04:38:31.040Z,11.50
2019-05-20T04:41:00.171Z,11.50
2019-05-20T04:43:29.467Z,11.40
2019-05-20T04:45:58.449Z,11.30
2019-05-20T04:48:27.552Z,11.40
2019-05-20T04:50:56.773Z,11.40
2019-05-20T04:53:25.860Z,11.60
2019-05-20T04:55:55.015Z,11.60
2019-05-20T04:58:24.056Z,11.60
2019-05-20T05:00:57.481Z,11.60
2019-05-20T05:03:27.460Z,11.50
2019-05-20T05:05:56.562Z,11.40
2019-05-20T05:08:25.656Z,11.50
2019-05-20T05:10:54.836Z,11.50
2019-05-20T05:13:24.163Z,11.40
2019-05-20T05:15:53.224Z,11.50
2019-05-20T05:18:22.410Z,11.50
2019-05-20T05:20:51.526Z,11.60
2019-05-20T05:23:20.643Z,11.50
2019-05-20T05:25:49.869Z,11.60
2019-05-20T05:28:19.509Z,11.40
2019-05-20T05:30:48.736Z,11.30
2019-05-20T05:33:17.798Z,11.10
2019-05-20T05:35:53.309Z,11.10
2019-05-20T05:38:17.743Z,11.20
2019-05-20T05:40:46.754Z,11.40
2019-05-20T05:43:15.950Z,11.50
2019-05-20T05:45:45.172Z,11.40
2019-05-20T05:48:14.272Z,11.60
2019-05-20T05:50:43.537Z,11.70
2019-05-20T05:53:12.692Z,11.50
2019-05-20T05:55:41.727Z,11.60
2019-05-20T05:58:10.800Z,11.50
2019-05-20T06:00:40.014Z,11.50
2019-05-20T06:03:09.230Z,11.60
2019-05-20T06:05:38.146Z,11.60
2019-05-20T06:08:07.416Z,11.80
2019-05-20T06:10:36.588Z,11.90
2019-05-20T06:13:05.828Z,11.90
2019-05-20T06:15:34.990Z,11.80
2019-05-20T06:18:04.225Z,11.90
2019-05-20T06:20:33.555Z,12.00
2019-05-20T06:23:02.796Z,12.00
2019-05-20T06:25:31.811Z,12.10
2019-05-20T06:28:01.141Z,12.10
2019-05-20T06:30:39.014Z,12.10
2019-05-20T06:33:08.249Z,12.10
2019-05-20T06:35:37.410Z,12.00
2019-05-20T06:38:09.651Z,11.70
2019-05-20T06:40:38.785Z,11.80
2019-05-20T06:43:07.877Z,11.80
2019-05-20T06:45:36.908Z,11.90
2019-05-20T06:48:05.946Z,11.80
2019-05-20T06:50:35.063Z,11.90
2019-05-20T06:53:04.310Z,12.00
2019-05-20T06:55:33.453Z,12.10
2019-05-20T06:58:02.447Z,12.10
2019-05-20T07:00:36.170Z,12.20
2019-05-20T07:03:05.536Z,12.20
2019-05-20T07:05:34.825Z,12.20
2019-05-20T07:08:03.844Z,12.20
2019-05-20T07:10:32.923Z,12.20
2019-05-20T07:13:02.037Z,12.30
2019-05-20T07:15:31.269Z,12.30
2019-05-20T07:18:00.332Z,12.40
2019-05-20T07:20:29.379Z,12.40
2019-05-20T07:22:58.741Z,12.30
2019-05-20T07:25:28.017Z,12.20
2019-05-20T07:27:58.085Z,12.20
2019-05-20T07:30:27.264Z,12.20
2019-05-20T07:32:56.364Z,12.10
2019-05-20T07:35:30.827Z,12.20
2019-05-20T07:37:56.381Z,12.20
2019-05-20T07:40:34.620Z,12.30
2019-05-20T07:43:05.354Z,12.40
2019-05-20T07:45:35.426Z,12.50
2019-05-20T07:48:05.475Z,12.60
2019-05-20T07:50:35.650Z,12.60
2019-05-20T07:53:04.746Z,12.70
2019-05-20T07:55:34.972Z,12.60
2019-05-20T07:58:06.888Z,12.70
2019-05-20T08:00:36.452Z,12.60
2019-05-20T08:03:05.590Z,12.80
2019-05-20T08:05:34.799Z,12.80
2019-05-20T08:08:04.020Z,12.90
2019-05-20T08:10:33.277Z,12.90
2019-05-20T08:13:02.587Z,13.00
2019-05-20T08:15:31.857Z,13.00
2019-05-20T08:18:01.121Z,13.00
2019-05-20T08:20:30.348Z,13.10
2019-05-20T08:22:59.496Z,13.10
2019-05-20T08:25:28.667Z,13.10
2019-05-20T08:27:58.009Z,13.30
2019-05-20T08:30:36.697Z,13.40
2019-05-20T08:33:05.918Z,13.40
2019-05-20T08:35:34.948Z,13.20
2019-05-20T08:38:04.000Z,13.10
2019-05-20T08:40:33.218Z,13.20
2019-05-20T08:43:02.272Z,13.30
2019-05-20T08:45:31.475Z,13.20
2019-05-20T08:48:00.568Z,12.90
2019-05-20T08:50:29.739Z,12.90
2019-05-20T08:52:58.891Z,13.00
2019-05-20T08:55:28.069Z,12.90
2019-05-20T08:57:58.062Z,13.00
2019-05-20T09:00:27.572Z,13.00
2019-05-20T09:02:56.806Z,13.10
2019-05-20T09:05:28.323Z,13.20
2019-05-20T09:08:03.047Z,13.20
2019-05-20T09:10:28.147Z,13.20
2019-05-20T09:12:57.270Z,13.20
2019-05-20T09:15:26.364Z,13.10
2019-05-20T09:17:55.406Z,13.00
2019-05-20T09:20:24.690Z,12.90
2019-05-20T09:22:53.942Z,13.00
2019-05-20T09:25:30.476Z,12.80
2019-05-20T09:27:59.968Z,12.80
2019-05-20T09:30:29.210Z,12.80
2019-05-20T09:32:58.276Z,13.00
2019-05-20T09:35:27.412Z,13.00
2019-05-20T09:37:56.431Z,12.80
2019-05-20T09:40:54.093Z,12.80
2019-05-20T09:43:23.324Z,13.00
2019-05-20T09:46:06.435Z,13.10
2019-05-20T09:48:25.198Z,13.10
2019-05-20T09:50:54.316Z,13.10
2019-05-20T09:53:24.144Z,13.20
2019-05-20T09:55:53.315Z,13.30
2019-05-20T09:58:22.432Z,13.20
2019-05-20T10:00:51.612Z,13.30
2019-05-20T10:03:20.816Z,13.30
2019-05-20T10:05:50.083Z,13.90
2019-05-20T10:08:36.297Z,13.10
2019-05-20T10:10:50.180Z,13.20
2019-05-20T10:13:19.244Z,13.00
2019-05-20T10:15:48.257Z,13.00
2019-05-20T10:18:35.571Z,13.20
2019-05-20T10:20:48.107Z,13.20
2019-05-20T10:23:17.292Z,13.20
2019-05-20T10:25:46.368Z,13.20
2019-05-20T10:28:15.463Z,13.30
2019-05-20T10:30:44.496Z,13.20
2019-05-20T10:33:13.576Z,13.40
2019-05-20T10:35:42.638Z,13.30
2019-05-20T10:38:11.674Z,13.30
2019-05-20T10:40:40.691Z,13.40
2019-05-20T10:43:09.781Z,13.50
2019-05-20T10:45:38.868Z,13.60
2019-05-20T10:48:09.153Z,13.70
2019-05-20T10:50:38.390Z,13.80
2019-05-20T10:53:07.508Z,13.70
2019-05-20T10:55:36.586Z,13.90
2019-05-20T10:58:05.644Z,14.10
2019-05-20T11:00:34.732Z,14.10
2019-05-20T11:03:03.683Z,14.00
2019-05-20T11:05:32.764Z,14.00
2019-05-20T11:08:01.859Z,13.90
2019-05-20T11:10:30.954Z,13.60
2019-05-20T11:13:00.548Z,13.50
2019-05-20T11:15:29.653Z,13.50
2019-05-20T11:17:58.673Z,13.70
2019-05-20T11:20:27.758Z,13.50
2019-05-20T11:23:00.887Z,13.40
2019-05-20T11:25:27.992Z,13.40
2019-05-20T11:27:56.903Z,13.10
2019-05-20T11:30:25.854Z,13.00
2019-05-20T11:32:54.975Z,13.10
2019-05-20T11:35:24.144Z,13.10
2019-05-20T11:37:53.306Z,13.20
2019-05-20T11:40:22.315Z,13.20
2019-05-20T11:42:51.373Z,13.20
2019-05-20T11:45:20.388Z,13.10
2019-05-20T11:47:49.468Z,13.00
2019-05-20T11:50:18.507Z,13.00
2019-05-20T11:52:47.659Z,13.10
2019-05-20T11:55:16.719Z,13.20
2019-05-20T11:57:45.866Z,13.20
2019-05-20T12:00:14.891Z,13.20
2019-05-20T12:02:43.942Z,13.40
2019-05-20T12:05:13.064Z,13.50
2019-05-20T12:07:42.111Z,13.50
2019-05-20T12:10:11.258Z,13.60
2019-05-20T12:12:40.390Z,13.70
2019-05-20T12:15:09.552Z,13.70
2019-05-20T12:17:38.657Z,13.60
2019-05-20T12:20:09.853Z,13.50
2019-05-20T12:22:38.735Z,13.70
2019-05-20T12:25:07.934Z,13.70
2019-05-20T12:27:37.063Z,13.60
2019-05-20T12:30:06.285Z,13.70
2019-05-20T12:32:35.365Z,13.70
2019-05-20T12:35:04.913Z,13.50
2019-05-20T12:37:34.143Z,13.50
2019-05-20T12:40:07.571Z,13.70
2019-05-20T12:42:34.157Z,13.60
2019-05-20T12:45:03.194Z,13.80
2019-05-20T12:47:32.392Z,13.70
2019-05-20T12:50:01.494Z,13.90
2019-05-20T12:52:30.607Z,14.00
2019-05-20T12:55:08.027Z,14.20
2019-05-20T12:57:30.617Z,14.30
2019-05-20T12:59:59.832Z,14.40
2019-05-20T13:02:28.904Z,14.50
2019-05-20T13:04:57.988Z,14.50
2019-05-20T13:07:27.169Z,14.60
2019-05-20T13:09:56.203Z,14.70
2019-05-20T13:12:25.397Z,14.80
2019-05-20T13:14:54.639Z,14.80
2019-05-20T13:17:24.008Z,14.80
2019-05-20T13:19:53.363Z,14.70
2019-05-20T13:22:22.512Z,14.60
2019-05-20T13:24:51.749Z,14.70
2019-05-20T13:27:20.967Z,14.80
2019-05-20T13:29:50.133Z,14.80
2019-05-20T13:32:19.334Z,14.90
2019-05-20T13:34:48.301Z,14.90
2019-05-20T13:37:17.549Z,14.80
2019-05-20T13:39:46.690Z,14.70
2019-05-20T13:42:15.665Z,14.70
2019-05-20T13:44:44.742Z,14.60
2019-05-20T13:47:13.954Z,14.70
2019-05-20T13:49:43.023Z,14.70
2019-05-20T13:52:12.118Z,14.80
2019-05-20T13:54:41.159Z,14.90
2019-05-20T13:57:12.877Z,15.00
2019-05-20T13:59:41.636Z,14.90
2019-05-20T14:02:10.720Z,14.80
2019-05-20T14:04:39.755Z,14.70
2019-05-20T14:07:09.038Z,14.60
2019-05-20T14:09:38.189Z,14.60
2019-05-20T14:12:07.340Z,14.60
2019-05-20T14:14:36.448Z,14.90
2019-05-20T14:17:05.616Z,15.00
2019-05-20T14:19:35.356Z,15.10
2019-05-20T14:22:04.501Z,15.10
2019-05-20T14:24:33.422Z,14.80
2019-05-20T14:27:02.655Z,14.50
2019-05-20T14:29:31.803Z,14.50
2019-05-20T14:32:00.793Z,14.50
2019-05-20T14:34:29.846Z,14.80
2019-05-20T14:36:59.004Z,14.80
2019-05-20T14:39:28.203Z,14.90
2019-05-20T14:41:57.498Z,14.90
2019-05-20T14:44:26.716Z,14.90
2019-05-20T14:46:55.861Z,14.90
2019-05-20T14:49:25.076Z,15.00
2019-05-20T14:51:54.463Z,15.00
2019-05-20T14:54:23.600Z,15.00
2019-05-20T14:56:52.772Z,14.90
2019-05-20T14:59:22.016Z,14.70
2019-05-20T15:01:51.234Z,14.60
2019-05-20T15:04:20.431Z,14.60
2019-05-20T15:06:49.587Z,14.40
2019-05-20T15:09:18.776Z,16.90
2019-05-20T15:11:48.053Z,14.40
2019-05-20T15:14:17.206Z,14.20
2019-05-20T15:16:46.377Z,14.20
2019-05-20T15:19:15.340Z,14.10
2019-05-20T15:21:44.561Z,13.90
2019-05-20T15:24:13.679Z,13.70
2019-05-20T15:26:42.980Z,13.80
2019-05-20T15:29:26.875Z,13.90
2019-05-20T15:31:43.108Z,13.90
2019-05-20T15:34:12.354Z,13.90
2019-05-20T15:36:41.493Z,13.80
2019-05-20T15:39:10.699Z,13.70
2019-05-20T15:41:39.807Z,13.70
2019-05-20T15:44:09.059Z,13.60
2019-05-20T15:46:38.098Z,13.60
2019-05-20T15:49:07.370Z,13.70
2019-05-20T15:51:36.347Z,13.70
2019-05-20T15:54:05.400Z,13.80
2019-05-20T15:56:34.459Z,13.80
2019-05-20T15:59:03.534Z,13.80
2019-05-20T16:01:32.801Z,13.90
2019-05-20T16:04:01.942Z,13.80
2019-05-20T16:06:31.043Z,13.80
2019-05-20T16:09:00.236Z,13.60
2019-05-20T16:11:29.449Z,13.50
2019-05-20T16:13:58.535Z,13.50
2019-05-20T16:16:27.731Z,13.50
2019-05-20T16:18:56.948Z,13.50
2019-05-20T16:21:26.231Z,13.30
2019-05-20T16:23:55.268Z,13.30
2019-05-20T16:26:24.322Z,13.30
2019-05-20T16:28:53.489Z,13.50
2019-05-20T16:31:22.692Z,13.60
2019-05-20T16:33:51.824Z,13.70
2019-05-20T16:36:21.013Z,13.80
2019-05-20T16:38:50.315Z,13.80
2019-05-20T16:41:19.584Z,13.80
2019-05-20T16:43:48.662Z,13.50
2019-05-20T16:46:17.999Z,13.50
2019-05-20T16:48:47.114Z,13.50
2019-05-20T16:51:16.313Z,13.60
2019-05-20T16:53:45.503Z,13.70
2019-05-20T16:56:14.798Z,13.50
2019-05-20T16:58:44.179Z,13.30
2019-05-20T17:01:13.551Z,13.40
2019-05-20T17:03:42.668Z,13.30
2019-05-20T17:06:11.843Z,13.30
2019-05-20T17:08:41.161Z,13.40
2019-05-20T17:11:10.293Z,13.30
2019-05-20T17:13:39.486Z,13.30
2019-05-20T17:16:08.627Z,13.10
2019-05-20T17:18:38.456Z,13.40
2019-05-20T17:21:07.715Z,13.30
2019-05-20T17:23:36.860Z,13.40
2019-05-20T17:26:05.991Z,13.50
2019-05-20T17:28:35.100Z,13.20
2019-05-20T17:31:04.176Z,13.30
2019-05-20T17:33:33.239Z,13.20
2019-05-20T17:36:02.379Z,13.20
2019-05-20T17:38:31.402Z,13.20
2019-05-20T17:41:00.400Z,13.20
2019-05-20T17:43:29.429Z,13.10
2019-05-20T17:45:58.484Z,13.20
2019-05-20T17:48:28.365Z,13.40
2019-05-20T17:50:57.509Z,13.30
2019-05-20T17:53:26.938Z,13.20
2019-05-20T17:55:56.020Z,13.20
2019-05-20T17:58:25.173Z,13.10
2019-05-20T18:00:54.436Z,13.10
2019-05-20T18:03:23.605Z,13.00
2019-05-20T18:05:52.737Z,13.00
2019-05-20T18:08:24.565Z,13.10
2019-05-20T18:10:52.402Z,13.10
2019-05-20T18:13:21.549Z,13.10
2019-05-20T18:15:50.617Z,13.10
2019-05-20T18:18:19.610Z,13.10
2019-05-20T18:20:48.590Z,13.10
2019-05-20T18:23:17.715Z,13.10
2019-05-20T18:25:46.812Z,13.00
2019-05-20T18:28:15.831Z,12.90
2019-05-20T18:30:44.914Z,12.80
2019-05-20T18:33:14.012Z,12.80
2019-05-20T18:35:43.102Z,12.60
2019-05-20T18:38:12.160Z,12.60
2019-05-20T18:40:41.378Z,12.70
2019-05-20T18:43:10.477Z,12.70
2019-05-20T18:45:39.618Z,12.70
2019-05-20T18:48:08.729Z,12.70
2019-05-20T18:50:37.885Z,12.60
2019-05-20T18:53:06.955Z,12.70
2019-05-20T18:55:36.237Z,12.60
2019-05-20T18:58:05.627Z,12.50
2019-05-20T19:00:34.830Z,12.40
2019-05-20T19:03:04.070Z,12.50
2019-05-20T19:05:33.154Z,12.30
2019-05-20T19:08:02.301Z,12.30
2019-05-20T19:10:31.409Z,12.30
2019-05-20T19:13:00.502Z,12.30
2019-05-20T19:15:29.676Z,12.30
2019-05-20T19:17:58.787Z,12.40
2019-05-20T19:20:27.924Z,12.40
2019-05-20T19:22:56.956Z,12.20
2019-05-20T19:25:37.365Z,12.30
2019-05-20T19:27:56.971Z,12.40
2019-05-20T19:30:25.962Z,12.30
2019-05-20T19:32:55.210Z,12.40
2019-05-20T19:35:24.427Z,12.50
2019-05-20T19:37:53.583Z,12.60
2019-05-20T19:40:22.722Z,12.50
2019-05-20T19:42:51.781Z,12.60
2019-05-20T19:45:20.995Z,12.40
2019-05-20T19:47:50.089Z,12.30
2019-05-20T19:50:19.330Z,12.40
2019-05-20T19:52:48.669Z,12.30
2019-05-20T19:55:19.063Z,12.30
2019-05-20T19:57:48.315Z,12.30
2019-05-20T20:00:17.512Z,12.30
2019-05-20T20:02:47.182Z,9.00
2019-05-20T20:05:16.236Z,12.30
2019-05-20T20:07:45.374Z,12.30
2019-05-20T20:10:14.376Z,12.30
2019-05-20T20:12:43.542Z,12.20
2019-05-20T20:15:17.588Z,12.10
2019-05-20T20:17:46.880Z,12.10
2019-05-20T20:20:16.129Z,12.20
2019-05-20T20:22:45.378Z,12.10
2019-05-20T20:25:14.489Z,12.10
2019-05-20T20:27:43.584Z,12.10
2019-05-20T20:30:12.706Z,12.10
2019-05-20T20:32:41.977Z,12.10
2019-05-20T20:35:11.191Z,12.10
2019-05-20T20:37:40.383Z,12.10
2019-05-20T20:40:09.439Z,12.20
2019-05-20T20:42:38.961Z,12.20
2019-05-20T20:45:08.263Z,12.20
2019-05-20T20:47:42.406Z,12.20
2019-05-20T20:50:09.016Z,12.20
2019-05-20T20:52:38.126Z,12.20
2019-05-20T20:55:07.215Z,12.20
2019-05-20T20:57:36.648Z,12.00
2019-05-20T21:00:06.424Z,12.00
2019-05-20T21:02:35.584Z,12.00
2019-05-20T21:05:04.972Z,12.00
2019-05-20T21:07:34.430Z,12.00
2019-05-20T21:10:03.803Z,12.10
2019-05-20T21:12:32.972Z,12.00
2019-05-20T21:15:02.378Z,12.00
2019-05-20T21:17:31.642Z,12.00
2019-05-20T21:20:00.752Z,12.00
2019-05-20T21:22:29.938Z,12.00
2019-05-20T21:24:59.079Z,12.00
2019-05-20T21:27:28.085Z,12.10
2019-05-20T21:29:57.100Z,12.00
2019-05-20T21:32:26.292Z,12.00
2019-05-20T21:34:55.639Z,12.00
2019-05-20T21:37:24.780Z,12.00
2019-05-20T21:39:53.867Z,11.90
2019-05-20T21:42:22.922Z,11.90
2019-05-20T21:44:52.137Z,11.90
2019-05-20T21:47:21.282Z,12.00
2019-05-20T21:49:50.459Z,11.80
2019-05-20T21:52:19.780Z,12.00
2019-05-20T21:54:49.019Z,11.90
2019-05-20T21:57:18.069Z,12.10
2019-05-20T21:59:47.229Z,12.00
2019-05-20T22:02:16.351Z,12.00
2019-05-20T22:04:45.583Z,12.00
2019-05-20T22:07:15.028Z,12.00
2019-05-20T22:09:44.255Z,11.90
2019-05-20T22:12:13.363Z,11.90
2019-05-20T22:14:42.384Z,11.90
2019-05-20T22:17:11.587Z,12.00
2019-05-20T22:19:40.746Z,12.00
2019-05-20T22:22:25.505Z,11.90
2019-05-20T22:24:54.744Z,11.90
2019-05-20T22:27:23.806Z,11.90
2019-05-20T22:29:52.846Z,12.00
2019-05-20T22:32:39.607Z,12.00
2019-05-20T22:35:08.681Z,11.90
2019-05-20T22:37:37.819Z,11.90
2019-05-20T22:40:06.842Z,12.10
2019-05-20T22:42:35.868Z,12.00
2019-05-20T22:45:05.475Z,12.00
2019-05-20T22:47:34.580Z,12.00
2019-05-20T22:50:03.723Z,12.00
2019-05-20T22:52:32.911Z,12.00
2019-05-20T22:55:01.997Z,11.90
2019-05-20T22:57:31.032Z,11.90
2019-05-20T23:00:00.288Z,11.90
2019-05-20T23:02:29.379Z,11.80
2019-05-20T23:04:58.395Z,11.80
2019-05-20T23:07:27.321Z,11.70
2019-05-20T23:09:56.503Z,11.80
2019-05-20T23:12:25.618Z,11.80
2019-05-20T23:14:54.828Z,11.80
2019-05-20T23:17:24.153Z,11.80
2019-05-20T23:19:53.144Z,11.80
2019-05-20T23:22:22.260Z,11.90
2019-05-20T23:24:51.382Z,11.70
2019-05-20T23:27:20.433Z,11.70
2019-05-20T23:29:49.508Z,11.70
2019-05-20T23:32:18.733Z,11.60
2019-05-20T23:34:48.008Z,11.70
2019-05-20T23:37:17.223Z,11.60
2019-05-20T23:39:46.499Z,11.60
2019-05-20T23:42:15.603Z,11.60
2019-05-20T23:44:44.728Z,11.60
2019-05-20T23:47:13.818Z,11.50
2019-05-20T23:49:42.851Z,11.60
2019-05-20T23:52:12.059Z,11.60
2019-05-20T23:54:41.182Z,11.60
2019-05-20T23:57:10.285Z,11.60
2019-05-20T23:59:39.476Z,11.70
